DAL135 KMIA-KLAX
Flight info
| Callsign | DAL135 |
|---|---|
| Flight time | N/A |
| Altitude | 28000 |
| Route | GLADZ4 BAGGS REMIS Y280 NAITE/N0467F300 Y280 LEV KCEEE TKNIQ MOLLR JCT FST/N0463F320 ELP J50 SSO J4 WLVRN ESTWD HLYWD1 |
| Aircraft | A321/M-SDE3FGHIRWY/LB1 |
Departure
| Time | N/A |
|---|---|
| Airport | Miami International Airport (KMIA) |
Arrival
| Time | 2026-04-22 18:07 |
|---|---|
| Airport | Los Angeles International Airport (KLAX) |
| Time | Latitude | Longitude | Altitude | Speed | Heading |
|---|---|---|---|---|---|
| 2026-04-22 18:05 | 33.94218 | -118.33422 | 823 ft | 146 kts | 267° |
| 2026-04-22 18:06 | 33.94106 | -118.34644 | 666 ft | 147 kts | 265° |
| 2026-04-22 18:06 | 33.93980 | -118.35862 | 500 ft | 146 kts | 265° |
| 2026-04-22 18:06 | 33.93860 | -118.37082 | 303 ft | 146 kts | 265° |
| 2026-04-22 18:06 | 33.93733 | -118.38279 | 157 ft | 145 kts | 264° |
| 2026-04-22 18:07 | 33.93619 | -118.39454 | 96 ft | 133 kts | 264° |
| 2026-04-22 18:07 | 33.93525 | -118.40355 | 94 ft | 82 kts | 263° |
| 2026-04-22 18:07 | 33.93477 | -118.40835 | 96 ft | 33 kts | 267° |
| 2026-04-22 18:07 | 33.93484 | -118.40969 | 95 ft | 13 kts | 277° |
| 2026-04-22 18:08 | 33.93517 | -118.41123 | 95 ft | 23 kts | 291° |
| 2026-04-22 18:08 | 33.93573 | -118.41255 | 96 ft | 15 kts | 338° |
| 2026-04-22 18:08 | 33.93669 | -118.41273 | 97 ft | 13 kts | 348° |
| 2026-04-22 18:08 | 33.93758 | -118.41262 | 96 ft | 14 kts | 17° |
| 2026-04-22 18:09 | 33.93832 | -118.41210 | 94 ft | 12 kts | 66° |
| 2026-04-22 18:09 | 33.93851 | -118.41146 | 94 ft | 2 kts | 17° |
| 2026-04-22 18:09 | 33.93893 | -118.41162 | 94 ft | 15 kts | 347° |
| 2026-04-22 18:09 | 33.94050 | -118.41188 | 94 ft | 23 kts | 354° |
| 2026-04-22 18:10 | 33.94204 | -118.41210 | 93 ft | 23 kts | 352° |
| 2026-04-22 18:10 | 33.94362 | -118.41235 | 94 ft | 22 kts | 353° |
| 2026-04-22 18:10 | 33.94513 | -118.41259 | 94 ft | 22 kts | 353° |
| 2026-04-22 18:10 | 33.94638 | -118.41276 | 93 ft | 12 kts | 354° |
| 2026-04-22 18:11 | 33.94700 | -118.41227 | 93 ft | 12 kts | 66° |
| 2026-04-22 18:11 | 33.94728 | -118.41107 | 94 ft | 15 kts | 81° |
| 2026-04-22 18:11 | 33.94740 | -118.40985 | 93 ft | 14 kts | 84° |
| 2026-04-22 18:11 | 33.94737 | -118.40884 | 93 ft | 11 kts | 117° |
| 2026-04-22 18:12 | 33.94702 | -118.40839 | 93 ft | 4 kts | 137° |
| 2026-04-22 18:12 | 33.94691 | -118.40826 | 93 ft | 0 kts | 137° |